createdAt,value
2017-11-08T00:01:13.358Z,26.00
2017-11-08T00:03:40.820Z,25.40
2017-11-08T00:06:08.305Z,25.97
2017-11-08T00:08:36.507Z,27.17
2017-11-08T00:11:03.976Z,26.23
2017-11-08T00:13:31.475Z,25.27
2017-11-08T00:15:58.921Z,25.77
2017-11-08T00:18:26.415Z,24.40
2017-11-08T00:20:56.788Z,25.67
2017-11-08T00:23:27.037Z,25.83
2017-11-08T00:25:55.268Z,23.00
2017-11-08T00:28:22.719Z,25.03
2017-11-08T00:30:53.716Z,26.87
2017-11-08T00:33:21.172Z,26.83
2017-11-08T00:35:49.396Z,26.20
2017-11-08T00:38:16.861Z,25.37
2017-11-08T00:40:44.328Z,25.20
2017-11-08T00:43:11.807Z,26.43
2017-11-08T00:45:39.256Z,27.53
2017-11-08T00:48:06.711Z,26.90
2017-11-08T00:50:34.156Z,26.67
2017-11-08T00:53:02.396Z,25.80
2017-11-08T00:55:29.854Z,26.83
2017-11-08T00:58:01.210Z,26.90
2017-11-08T01:00:28.672Z,26.77
2017-11-08T01:02:56.121Z,27.23
2017-11-08T01:05:23.573Z,27.60
2017-11-08T01:07:51.014Z,26.50
2017-11-08T01:10:18.474Z,25.93
2017-11-08T01:12:45.920Z,27.27
2017-11-08T01:15:13.360Z,30.17
2017-11-08T01:17:41.577Z,28.27
2017-11-08T01:20:09.010Z,26.80
2017-11-08T01:22:36.469Z,27.70
2017-11-08T01:25:03.902Z,28.37
2017-11-08T01:27:31.355Z,26.47
2017-11-08T01:29:58.800Z,27.30
2017-11-08T01:32:27.017Z,28.80
2017-11-08T01:34:54.463Z,27.70
2017-11-08T01:40:22.363Z,27.80
2017-11-08T01:42:49.815Z,27.70
2017-11-08T01:45:17.246Z,27.20
2017-11-08T01:47:44.702Z,26.97
2017-11-08T01:50:12.140Z,27.80
2017-11-08T01:52:39.644Z,26.90
2017-11-08T01:55:07.072Z,26.80
2017-11-08T01:57:34.511Z,28.10
2017-11-08T02:00:01.951Z,29.73
2017-11-08T02:02:29.408Z,30.87
2017-11-08T02:04:56.847Z,27.13
2017-11-08T02:07:24.294Z,30.70
2017-11-08T02:09:51.739Z,26.30
2017-11-08T02:12:19.195Z,27.07
2017-11-08T02:14:46.645Z,28.30
2017-11-08T02:17:14.100Z,29.87
2017-11-08T02:19:43.446Z,29.70
2017-11-08T02:22:10.888Z,29.20
2017-11-08T02:24:38.340Z,31.50
2017-11-08T02:27:05.780Z,30.70
2017-11-08T02:29:33.233Z,28.17
2017-11-08T02:32:00.675Z,28.43
2017-11-08T02:34:28.132Z,29.17
2017-11-08T02:36:55.585Z,31.27
2017-11-08T02:39:23.035Z,27.10
2017-11-08T02:41:50.472Z,28.83
2017-11-08T02:44:17.919Z,29.97
2017-11-08T02:46:45.367Z,28.23
2017-11-08T02:49:12.820Z,28.90
2017-11-08T02:51:40.255Z,31.40
2017-11-08T02:54:08.494Z,27.10
2017-11-08T02:56:35.950Z,28.00
2017-11-08T02:59:03.409Z,30.17
2017-11-08T03:01:30.860Z,29.37
2017-11-08T03:04:13.391Z,28.53
2017-11-08T03:06:40.835Z,29.07
2017-11-08T03:09:08.287Z,29.13
2017-11-08T03:11:35.739Z,28.40
2017-11-08T03:14:03.194Z,28.37
2017-11-08T03:16:30.653Z,28.27
2017-11-08T03:18:58.111Z,26.10
2017-11-08T03:21:25.564Z,28.50
2017-11-08T03:23:53.007Z,27.67
2017-11-08T03:26:20.450Z,27.07
2017-11-08T03:28:48.664Z,27.77
2017-11-08T03:31:16.132Z,28.90
2017-11-08T03:33:43.984Z,29.30
2017-11-08T03:36:11.446Z,27.80
2017-11-08T03:38:38.883Z,27.20
2017-11-08T03:41:06.333Z,29.70
2017-11-08T03:43:33.771Z,28.43
2017-11-08T03:46:01.214Z,27.10
2017-11-08T03:48:28.658Z,28.03
2017-11-08T03:50:56.107Z,29.10
2017-11-08T03:56:27.808Z,26.00
2017-11-08T03:58:55.246Z,27.87
2017-11-08T04:01:22.699Z,31.50
2017-11-08T04:03:50.861Z,27.73
2017-11-08T04:06:18.311Z,30.20
2017-11-08T04:08:45.758Z,28.60
2017-11-08T04:11:13.215Z,26.77
2017-11-08T04:19:43.111Z,26.40
2017-11-08T04:22:10.560Z,30.07
2017-11-08T04:24:37.999Z,27.10
2017-11-08T04:27:05.438Z,28.30
2017-11-08T04:29:32.894Z,27.77
2017-11-08T04:32:00.330Z,28.03
2017-11-08T04:34:27.775Z,28.80
2017-11-08T04:36:55.231Z,26.83
2017-11-08T04:39:22.675Z,27.80
2017-11-08T04:41:50.118Z,26.73
2017-11-08T04:44:17.563Z,26.80
2017-11-08T04:46:45.008Z,27.77
2017-11-08T04:49:12.451Z,27.03
2017-11-08T04:51:39.905Z,26.40
2017-11-08T04:54:07.346Z,25.53
2017-11-08T04:56:34.800Z,27.10
2017-11-08T04:59:02.234Z,27.13
2017-11-08T05:01:29.688Z,25.50
2017-11-08T05:03:57.145Z,27.73
2017-11-08T05:06:24.584Z,25.20
2017-11-08T05:08:52.023Z,26.13
2017-11-08T05:11:19.463Z,25.37
2017-11-08T05:13:46.906Z,26.33
2017-11-08T05:16:14.364Z,25.63
2017-11-08T05:18:41.819Z,26.23
2017-11-08T05:21:09.272Z,26.37
2017-11-08T05:23:36.728Z,26.47
2017-11-08T05:26:04.177Z,26.80
2017-11-08T05:28:31.629Z,26.37
2017-11-08T05:31:04.447Z,24.33
2017-11-08T05:33:31.895Z,25.93
2017-11-08T05:35:59.335Z,26.07
2017-11-08T05:38:26.790Z,26.30
2017-11-08T05:40:54.245Z,25.73
2017-11-08T05:43:42.564Z,25.73
2017-11-08T05:46:10.004Z,23.80
2017-11-08T05:48:37.442Z,25.33
2017-11-08T05:51:04.892Z,25.67
2017-11-08T05:53:32.355Z,25.83
2017-11-08T06:01:48.104Z,24.60
2017-11-08T06:07:18.787Z,27.40
2017-11-08T06:09:46.239Z,25.97
2017-11-08T06:15:17.328Z,25.10
2017-11-08T06:17:44.765Z,25.07
2017-11-08T06:20:12.210Z,25.60
2017-11-08T06:22:39.655Z,25.63
2017-11-08T06:25:07.101Z,24.70
2017-11-08T06:27:34.544Z,25.40
2017-11-08T06:30:01.999Z,23.53
2017-11-08T06:32:35.644Z,25.00
2017-11-08T06:35:03.099Z,23.93
2017-11-08T06:37:30.562Z,23.13
2017-11-08T06:39:58.014Z,23.93
2017-11-08T06:42:25.463Z,23.57
2017-11-08T06:44:52.922Z,23.03
2017-11-08T06:47:20.375Z,21.90
2017-11-08T06:49:47.832Z,24.27
2017-11-08T06:52:15.272Z,23.53
2017-11-08T06:54:42.719Z,23.10
2017-11-08T06:57:10.153Z,22.77
2017-11-08T06:59:37.600Z,20.97
2017-11-08T07:02:05.052Z,21.80
2017-11-08T07:04:32.492Z,21.40
2017-11-08T07:07:00.712Z,21.03
2017-11-08T07:09:28.143Z,21.37
2017-11-08T07:11:55.602Z,18.97
2017-11-08T07:14:23.048Z,20.10
2017-11-08T07:16:50.495Z,19.13
2017-11-08T07:19:18.712Z,18.73
2017-11-08T07:21:46.162Z,16.77
2017-11-08T07:24:13.614Z,17.40
2017-11-08T07:26:41.067Z,17.50
2017-11-08T07:29:08.511Z,17.00
2017-11-08T07:31:35.955Z,17.23
2017-11-08T07:34:03.399Z,16.30
2017-11-08T07:36:30.839Z,15.37
2017-11-08T07:38:58.286Z,14.23
2017-11-08T07:41:25.722Z,11.57
2017-11-08T07:43:53.181Z,10.27
2017-11-08T07:46:20.628Z,11.67
2017-11-08T07:48:48.087Z,10.07
2017-11-08T07:51:15.527Z,8.43
2017-11-08T07:53:45.777Z,7.33
2017-11-08T07:56:13.216Z,6.87
2017-11-08T07:58:40.662Z,6.83
2017-11-08T08:01:08.092Z,6.87
2017-11-08T08:03:36.034Z,6.00
2017-11-08T08:06:03.462Z,5.73
2017-11-08T08:08:30.902Z,6.30
2017-11-08T08:11:04.116Z,5.50
2017-11-08T08:13:32.322Z,6.10
2017-11-08T08:15:59.768Z,6.33
2017-11-08T08:18:27.200Z,7.03
2017-11-08T08:20:54.634Z,6.40
2017-11-08T08:23:22.084Z,5.20
2017-11-08T08:25:49.529Z,6.00
2017-11-08T08:28:16.972Z,5.37
2017-11-08T08:30:44.415Z,5.87
2017-11-08T08:33:11.847Z,5.53
2017-11-08T08:35:39.291Z,5.30
2017-11-08T08:38:06.728Z,6.60
2017-11-08T08:40:34.172Z,5.93
2017-11-08T08:43:01.610Z,5.50
2017-11-08T08:45:31.066Z,5.33
2017-11-08T08:47:58.504Z,6.27
2017-11-08T08:50:25.951Z,6.03
2017-11-08T08:52:53.395Z,6.83
2017-11-08T08:55:20.850Z,6.77
2017-11-08T08:57:48.279Z,5.53
2017-11-08T09:00:16.500Z,6.60
2017-11-08T09:02:48.764Z,5.07
2017-11-08T09:05:16.365Z,6.20
2017-11-08T09:07:43.800Z,6.20
2017-11-08T09:10:11.234Z,6.30
2017-11-08T09:12:38.679Z,6.10
2017-11-08T09:15:06.106Z,6.13
2017-11-08T09:17:34.328Z,6.53
2017-11-08T09:20:01.761Z,6.60
2017-11-08T09:22:29.214Z,6.10
2017-11-08T09:24:59.196Z,6.10
2017-11-08T09:27:27.410Z,5.60
2017-11-08T09:29:55.794Z,6.20
2017-11-08T09:32:23.241Z,6.83
2017-11-08T09:34:50.676Z,7.00
2017-11-08T09:37:23.722Z,7.13
2017-11-08T09:39:51.167Z,7.50
2017-11-08T09:42:20.543Z,7.73
2017-11-08T09:44:47.974Z,8.20
2017-11-08T09:47:18.008Z,7.80
2017-11-08T09:49:45.439Z,7.53
2017-11-08T09:52:12.877Z,7.87
2017-11-08T09:54:41.210Z,8.63
2017-11-08T09:57:10.505Z,8.77
2017-11-08T09:59:37.939Z,8.83
2017-11-08T10:02:06.188Z,9.00
2017-11-08T10:04:33.635Z,9.03
2017-11-08T10:07:01.092Z,8.50
2017-11-08T10:09:30.283Z,9.17
2017-11-08T10:12:01.572Z,8.90
2017-11-08T10:14:29.768Z,9.10
2017-11-08T10:16:57.215Z,9.10
2017-11-08T10:19:26.602Z,9.07
2017-11-08T10:21:54.047Z,9.13
2017-11-08T10:24:22.266Z,9.60
2017-11-08T10:26:49.733Z,10.13
2017-11-08T10:29:17.179Z,9.73
2017-11-08T10:31:44.639Z,10.30
2017-11-08T10:34:12.084Z,10.10
2017-11-08T10:36:39.527Z,10.03
2017-11-08T10:39:07.000Z,10.13
2017-11-08T10:41:34.445Z,10.73
2017-11-08T10:44:01.865Z,11.43
2017-11-08T10:46:29.315Z,12.07
2017-11-08T10:48:56.774Z,11.30
2017-11-08T10:51:29.996Z,10.20
2017-11-08T10:53:57.469Z,11.60
2017-11-08T10:56:24.899Z,11.70
2017-11-08T10:58:52.347Z,11.30
2017-11-08T11:01:20.584Z,11.00
2017-11-08T11:03:51.376Z,11.60
2017-11-08T11:06:18.832Z,11.20
2017-11-08T11:08:47.434Z,11.40
2017-11-08T11:11:16.472Z,11.90
2017-11-08T11:16:43.259Z,12.33
2017-11-08T11:58:22.443Z,9.20
2017-11-08T13:21:00.187Z,7.70
2017-11-08T13:43:42.476Z,10.30
2017-11-08T13:46:09.941Z,10.03
2017-11-08T13:48:37.381Z,9.80
2017-11-08T13:51:04.833Z,9.90
2017-11-08T13:53:32.288Z,11.20
2017-11-08T13:55:59.748Z,10.03
2017-11-08T13:58:27.223Z,10.33
2017-11-08T14:00:54.674Z,10.40
2017-11-08T14:03:28.655Z,9.90
2017-11-08T14:05:56.175Z,8.97
2017-11-08T14:08:23.617Z,9.80
2017-11-08T14:10:51.055Z,9.43
2017-11-08T14:13:18.508Z,9.63
2017-11-08T14:15:45.949Z,9.23
2017-11-08T14:18:13.401Z,8.23
2017-11-08T14:20:40.832Z,9.03
2017-11-08T14:23:08.277Z,8.87
2017-11-08T14:25:35.708Z,9.30
2017-11-08T14:28:03.152Z,8.93
2017-11-08T14:30:33.369Z,9.27
2017-11-08T14:33:00.838Z,9.80
2017-11-08T14:35:28.291Z,10.70
2017-11-08T14:37:55.736Z,11.03
2017-11-08T14:40:23.192Z,12.80
2017-11-08T14:42:51.432Z,11.03
2017-11-08T14:45:18.880Z,10.17
2017-11-08T14:47:47.084Z,10.33
2017-11-08T14:50:14.543Z,10.83
2017-11-08T14:52:41.997Z,10.40
2017-11-08T14:55:11.353Z,11.00
2017-11-08T14:57:38.788Z,10.20
2017-11-08T15:00:06.248Z,9.87
2017-11-08T15:02:33.700Z,11.40
2017-11-08T15:05:01.161Z,12.00
2017-11-08T15:07:28.604Z,11.40
2017-11-08T15:09:56.067Z,13.73
2017-11-08T15:12:29.181Z,13.10
2017-11-08T15:14:58.321Z,14.23
2017-11-08T15:17:25.776Z,10.43
2017-11-08T15:20:01.831Z,10.50
2017-11-08T15:22:29.281Z,11.10
2017-11-08T15:24:56.711Z,11.60
2017-11-08T15:27:24.164Z,11.40
2017-11-08T15:29:53.373Z,11.00
2017-11-08T15:32:20.832Z,10.70
2017-11-08T15:34:48.267Z,10.40
2017-11-08T15:37:16.493Z,10.00
2017-11-08T15:39:58.681Z,10.10
2017-11-08T15:42:26.127Z,10.50
2017-11-08T15:44:53.574Z,10.40
2017-11-08T15:47:21.028Z,10.67
2017-11-08T15:49:48.467Z,10.77
2017-11-08T15:52:15.911Z,8.20
2017-11-08T15:54:43.351Z,10.47
2017-11-08T15:57:10.800Z,11.13
2017-11-08T15:59:38.269Z,12.73
2017-11-08T16:02:05.721Z,12.90
2017-11-08T16:04:33.190Z,11.37
2017-11-08T16:07:00.620Z,9.23
2017-11-08T16:09:28.080Z,7.90
2017-11-08T16:11:57.284Z,7.23
2017-11-08T16:14:24.732Z,8.57
2017-11-08T16:16:52.177Z,8.20
2017-11-08T16:19:19.616Z,7.80
2017-11-08T16:21:47.064Z,8.10
2017-11-08T16:24:16.298Z,8.50
2017-11-08T16:26:44.343Z,8.90
2017-11-08T16:29:11.781Z,8.93
2017-11-08T16:31:42.544Z,9.00
2017-11-08T16:34:09.986Z,8.50
2017-11-08T16:36:37.431Z,8.30
2017-11-08T16:39:04.863Z,9.40
2017-11-08T16:41:32.308Z,8.97
2017-11-08T16:43:59.753Z,8.60
2017-11-08T16:46:27.220Z,10.20
2017-11-08T16:48:54.673Z,10.80
2017-11-08T16:51:22.128Z,11.03
2017-11-08T16:53:49.604Z,10.90
2017-11-08T16:56:17.052Z,9.80
2017-11-08T16:58:44.504Z,10.13
2017-11-08T17:01:11.957Z,10.47
2017-11-08T17:03:39.404Z,10.50
2017-11-08T17:06:06.853Z,9.60
2017-11-08T17:08:35.176Z,9.30
2017-11-08T17:11:02.628Z,10.50
2017-11-08T17:13:30.068Z,10.53
2017-11-08T17:15:58.404Z,11.00
2017-11-08T17:18:25.839Z,10.43
2017-11-08T17:20:53.292Z,10.40
2017-11-08T17:23:20.736Z,10.37
2017-11-08T17:25:48.204Z,10.67
2017-11-08T17:28:15.644Z,11.30
2017-11-08T17:30:43.076Z,10.77
2017-11-08T17:33:10.530Z,11.60
2017-11-08T17:35:37.971Z,11.60
2017-11-08T17:38:05.424Z,11.80
2017-11-08T17:40:32.878Z,10.90
2017-11-08T17:43:00.319Z,13.10
2017-11-08T17:45:27.777Z,17.30
2017-11-08T17:47:55.231Z,14.63
2017-11-08T17:50:22.688Z,12.90
2017-11-08T17:52:50.144Z,12.57
2017-11-08T17:55:17.600Z,13.80
2017-11-08T17:57:45.057Z,13.00
2017-11-08T18:00:12.515Z,11.90
2017-11-08T18:02:39.966Z,13.67
2017-11-08T18:05:07.413Z,13.23
2017-11-08T18:07:34.866Z,12.83
2017-11-08T18:10:02.313Z,13.43
2017-11-08T18:12:30.611Z,13.50
2017-11-08T18:14:58.064Z,11.73
2017-11-08T18:17:25.508Z,11.83
2017-11-08T18:19:52.961Z,18.20
2017-11-08T18:22:20.436Z,17.13
2017-11-08T18:24:47.881Z,13.27
2017-11-08T18:27:15.329Z,16.57
2017-11-08T18:29:42.777Z,17.77
2017-11-08T18:32:10.220Z,15.80
2017-11-08T18:34:37.656Z,29.40
2017-11-08T18:37:05.860Z,27.83
2017-11-08T18:39:33.311Z,16.70
2017-11-08T18:42:00.760Z,15.80
2017-11-08T18:47:32.313Z,16.50
2017-11-08T18:49:59.755Z,16.10
2017-11-08T18:52:27.199Z,15.57
2017-11-08T18:54:54.649Z,14.97
2017-11-08T18:57:22.245Z,12.40
2017-11-08T18:59:49.685Z,14.30
2017-11-08T19:02:17.164Z,13.20
2017-11-08T19:04:44.603Z,11.07
2017-11-08T19:07:12.053Z,13.30
2017-11-08T19:09:39.501Z,12.63
2017-11-08T19:12:06.957Z,13.60
2017-11-08T19:14:34.401Z,11.53
2017-11-08T19:17:01.844Z,20.80
2017-11-08T19:19:29.284Z,16.10
2017-11-08T19:21:56.732Z,15.30
2017-11-08T19:24:24.191Z,15.37
2017-11-08T19:26:51.641Z,12.77
2017-11-08T19:29:19.086Z,14.20
2017-11-08T19:31:47.295Z,13.03
2017-11-08T19:34:14.762Z,12.40
2017-11-08T19:36:42.222Z,12.20
2017-11-08T19:39:09.678Z,11.73
2017-11-08T19:41:37.137Z,11.93
2017-11-08T19:44:04.577Z,11.50
2017-11-08T19:46:32.020Z,12.30
2017-11-08T19:48:59.468Z,11.73
2017-11-08T19:51:26.921Z,11.93
2017-11-08T19:53:54.362Z,13.33
2017-11-08T19:56:22.576Z,12.90
2017-11-08T19:58:50.020Z,12.60
2017-11-08T20:01:17.487Z,12.10
2017-11-08T20:03:45.162Z,11.90
2017-11-08T20:06:12.621Z,12.27
2017-11-08T20:08:40.073Z,11.53
2017-11-08T20:11:07.519Z,11.27
2017-11-08T20:13:34.961Z,11.50
2017-11-08T20:16:02.417Z,12.30
2017-11-08T20:18:29.858Z,11.87
2017-11-08T20:20:57.314Z,11.80
2017-11-08T20:23:32.015Z,12.60
2017-11-08T20:25:59.460Z,12.67
2017-11-08T20:28:26.918Z,11.60
2017-11-08T20:30:54.360Z,13.10
2017-11-08T20:33:21.819Z,12.67
2017-11-08T20:35:49.272Z,11.57
2017-11-08T20:38:16.712Z,11.47
2017-11-08T20:40:44.170Z,11.23
2017-11-08T20:43:11.633Z,12.80
2017-11-08T20:45:39.089Z,11.47
2017-11-08T20:48:06.531Z,11.60
2017-11-08T20:50:33.995Z,12.10
2017-11-08T20:56:08.469Z,12.63
2017-11-08T20:58:35.908Z,13.60
2017-11-08T21:01:03.994Z,12.83
2017-11-08T21:03:31.496Z,12.77
2017-11-08T21:05:58.964Z,14.13
2017-11-08T21:08:26.404Z,15.00
2017-11-08T21:10:53.848Z,17.80
2017-11-08T21:13:21.303Z,18.53
2017-11-08T21:15:48.757Z,17.53
2017-11-08T21:18:16.200Z,15.10
2017-11-08T21:20:43.646Z,14.13
2017-11-08T21:23:11.095Z,13.30
2017-11-08T21:25:38.548Z,13.43
2017-11-08T21:28:06.757Z,13.27
2017-11-08T21:30:34.211Z,13.03
2017-11-08T21:54:25.800Z,12.57
2017-11-08T21:56:53.245Z,13.03
2017-11-08T21:59:20.693Z,12.57
2017-11-08T22:01:48.144Z,12.60
2017-11-08T22:04:15.589Z,12.77
2017-11-08T22:06:43.046Z,11.83
2017-11-08T22:09:10.499Z,12.63
2017-11-08T22:11:37.952Z,12.50
2017-11-08T22:14:06.029Z,13.00
2017-11-08T22:16:33.480Z,13.60
2017-11-08T22:19:00.920Z,12.70
2017-11-08T22:21:28.370Z,13.07
2017-11-08T22:23:55.848Z,12.37
2017-11-08T22:26:23.284Z,12.83
2017-11-08T22:28:50.735Z,12.73
2017-11-08T22:31:18.179Z,12.70
2017-11-08T22:33:46.467Z,12.87
2017-11-08T22:36:13.912Z,13.00
2017-11-08T22:38:41.364Z,12.50
2017-11-08T22:41:08.820Z,13.40
2017-11-08T22:49:44.261Z,12.97
2017-11-08T22:52:11.702Z,14.10
2017-11-08T22:54:39.163Z,12.93
2017-11-08T22:57:09.313Z,13.90
2017-11-08T22:59:36.753Z,13.03
2017-11-08T23:02:04.205Z,13.00
2017-11-08T23:04:31.645Z,13.43
2017-11-08T23:06:59.100Z,14.57
2017-11-08T23:09:26.560Z,13.53
2017-11-08T23:11:54.014Z,13.07
2017-11-08T23:14:22.352Z,13.83
2017-11-08T23:16:49.798Z,14.70
2017-11-08T23:19:17.241Z,14.83
2017-11-08T23:21:44.687Z,13.27
2017-11-08T23:24:12.960Z,14.53
2017-11-08T23:26:40.403Z,12.77
2017-11-08T23:29:07.842Z,14.23
2017-11-08T23:31:35.297Z,15.63
2017-11-08T23:34:02.760Z,13.73
2017-11-08T23:36:30.210Z,14.93
2017-11-08T23:38:57.667Z,14.57
2017-11-08T23:41:25.132Z,15.27
2017-11-08T23:43:52.586Z,15.10
2017-11-08T23:46:20.036Z,15.37
2017-11-08T23:48:47.485Z,15.53
2017-11-08T23:51:15.692Z,15.07
2017-11-08T23:53:44.912Z,14.43
2017-11-08T23:56:12.357Z,14.83
2017-11-08T23:58:39.808Z,15.63
